Time,TemperatureF,DewpointF,PressureIn,WindDirection,WindDirectionDegrees,WindSpeedMPH,WindSpeedGustMPH,Humidity,HourlyPrecipIn,Conditions,Clouds,dailyrainin,SoftwareType,DateUTC
2013-07-24 00:32:00,59.0,50.0,29.87,NNE,32,0.0,0.0,73,0.00,,,0.00,,2013-07-24 04:32:00,
2013-07-24 00:43:00,58.0,50.0,29.88,ESE,110,0.0,2.0,74,0.00,,,0.00,,2013-07-24 04:43:00,
2013-07-24 00:52:00,58.0,50.0,29.88,ESE,110,0.0,2.0,74,0.00,,,0.00,,2013-07-24 04:52:00,
2013-07-24 01:02:00,57.0,49.0,29.88,South,173,0.0,0.0,74,0.00,,,0.00,,2013-07-24 05:02:00,
2013-07-24 01:11:00,57.0,49.0,29.88,South,173,0.0,0.0,74,0.00,,,0.00,,2013-07-24 05:11:00,
2013-07-24 01:22:00,57.0,49.0,29.88,South,172,0.0,1.0,75,0.00,,,0.00,,2013-07-24 05:22:00,
2013-07-24 01:33:00,56.0,49.0,29.88,South,172,0.0,0.0,76,0.00,,,0.00,,2013-07-24 05:33:00,
2013-07-24 01:52:00,55.0,49.0,29.89,South,172,0.0,0.0,80,0.00,,,0.00,,2013-07-24 05:52:00,
2013-07-24 02:01:00,53.0,48.0,29.89,South,172,0.0,0.0,83,0.00,,,0.00,,2013-07-24 06:01:00,
2013-07-24 02:24:00,53.0,48.0,29.89,South,172,0.0,0.0,84,0.00,,,0.00,,2013-07-24 06:24:00,
2013-07-24 02:34:00,52.0,48.0,29.90,South,173,0.0,0.0,86,0.00,,,0.00,,2013-07-24 06:34:00,
2013-07-24 02:53:00,51.0,48.0,29.89,South,172,0.0,0.0,88,0.00,,,0.00,,2013-07-24 06:53:00,
2013-07-24 03:02:00,51.0,48.0,29.89,South,173,0.0,0.0,89,0.00,,,0.00,,2013-07-24 07:02:00,
2013-07-24 03:12:00,51.0,48.0,29.89,South,173,0.0,0.0,89,0.00,,,0.00,,2013-07-24 07:12:00,
2013-07-24 03:22:00,51.0,48.0,29.89,South,173,0.0,0.0,89,0.00,,,0.00,,2013-07-24 07:22:00,
2013-07-24 03:32:00,50.0,47.0,29.89,South,173,0.0,0.0,90,0.00,,,0.00,,2013-07-24 07:32:00,
2013-07-24 04:02:00,50.0,47.0,29.89,South,173,0.0,0.0,91,0.00,,,0.00,,2013-07-24 08:02:00,
2013-07-24 04:12:00,50.0,48.0,29.89,South,172,0.0,0.0,92,0.00,,,0.00,,2013-07-24 08:12:00,
2013-07-24 04:22:00,49.0,46.0,29.89,South,172,0.0,0.0,91,0.00,,,0.00,,2013-07-24 08:22:00,
2013-07-24 04:32:00,49.0,47.0,29.89,South,172,0.0,0.0,92,0.00,,,0.00,,2013-07-24 08:32:00,
2013-07-24 04:43:00,49.0,47.0,29.89,South,173,0.0,0.0,92,0.00,,,0.00,,2013-07-24 08:43:00,
2013-07-24 04:52:00,49.0,47.0,29.89,South,172,0.0,0.0,92,0.00,,,0.00,,2013-07-24 08:52:00,
2013-07-24 05:02:00,49.0,47.0,29.89,South,172,0.0,0.0,92,0.00,,,0.00,,2013-07-24 09:02:00,
2013-07-24 05:32:00,49.0,47.0,29.90,South,172,0.0,0.0,92,0.00,,,0.00,,2013-07-24 09:32:00,
2013-07-24 05:43:00,49.0,47.0,29.91,South,173,0.0,0.0,92,0.00,,,0.00,,2013-07-24 09:43:00,
2013-07-24 05:53:00,49.0,47.0,29.91,South,173,0.0,0.0,92,0.00,,,0.00,,2013-07-24 09:53:00,
2013-07-24 06:12:00,49.0,47.0,29.90,South,172,0.0,0.0,92,0.00,,,0.00,,2013-07-24 10:12:00,
2013-07-24 06:33:00,49.0,47.0,29.92,South,173,0.0,0.0,92,0.00,,,0.00,,2013-07-24 10:33:00,
2013-07-24 06:43:00,49.0,47.0,29.92,South,173,0.0,0.0,92,0.00,,,0.00,,2013-07-24 10:43:00,
2013-07-24 07:02:00,49.0,47.0,29.94,South,173,0.0,0.0,93,0.00,,,0.00,,2013-07-24 11:02:00,
2013-07-24 07:12:00,49.0,47.0,29.94,South,172,0.0,0.0,93,0.00,,,0.00,,2013-07-24 11:12:00,
2013-07-24 07:43:00,50.0,48.0,29.95,South,172,0.0,0.0,93,0.00,,,0.00,,2013-07-24 11:43:00,
2013-07-24 07:52:00,50.0,48.0,29.95,South,173,0.0,0.0,93,0.00,,,0.00,,2013-07-24 11:52:00,
2013-07-24 08:22:00,51.0,49.0,29.95,NNE,15,0.0,1.0,92,0.00,,,0.00,,2013-07-24 12:22:00,
2013-07-24 08:52:00,55.0,50.0,29.95,NE,46,0.0,3.0,83,0.00,,,0.00,,2013-07-24 12:52:00,
2013-07-24 09:02:00,58.0,51.0,29.96,North,0,0.0,6.0,77,0.00,,,0.00,,2013-07-24 13:02:00,
2013-07-24 09:22:00,60.0,51.0,29.97,NE,56,0.0,5.0,73,0.00,,,0.00,,2013-07-24 13:22:00,
2013-07-24 09:43:00,61.0,51.0,29.97,ENE,63,3.0,5.0,69,0.00,,,0.00,,2013-07-24 13:43:00,
2013-07-24 09:53:00,62.0,51.0,29.97,East,87,0.0,4.0,67,0.00,,,0.00,,2013-07-24 13:53:00,
2013-07-24 10:02:00,63.0,51.0,29.97,NNE,19,0.0,3.0,66,0.00,,,0.00,,2013-07-24 14:02:00,
2013-07-24 10:12:00,63.0,51.0,29.98,NE,56,0.0,4.0,65,0.00,,,0.00,,2013-07-24 14:12:00,
2013-07-24 10:22:00,63.0,51.0,29.98,NE,56,0.0,4.0,65,0.00,,,0.00,,2013-07-24 14:22:00,
2013-07-24 10:32:00,64.0,52.0,29.98,NE,48,0.0,3.0,66,0.00,,,0.00,,2013-07-24 14:32:00,
2013-07-24 10:43:00,64.0,52.0,29.98,ENE,61,0.0,6.0,66,0.00,,,0.00,,2013-07-24 14:43:00,
2013-07-24 11:03:00,66.0,54.0,29.98,North,350,0.0,1.0,65,0.00,,,0.00,,2013-07-24 15:03:00,
2013-07-24 11:12:00,66.0,54.0,29.98,North,350,0.0,1.0,65,0.00,,,0.00,,2013-07-24 15:12:00,
2013-07-24 11:33:00,67.0,53.0,29.98,East,95,0.0,5.0,60,0.00,,,0.00,,2013-07-24 15:33:00,
2013-07-24 11:43:00,67.0,53.0,29.98,East,95,0.0,5.0,60,0.00,,,0.00,,2013-07-24 15:43:00,
2013-07-24 11:52:00,67.0,53.0,29.98,East,95,0.0,5.0,60,0.00,,,0.00,,2013-07-24 15:52:00,
2013-07-24 12:12:00,69.0,55.0,29.99,NNE,14,0.0,3.0,61,0.00,,,0.00,,2013-07-24 16:12:00,
2013-07-24 12:22:00,69.0,54.0,29.99,NNW,336,1.0,4.0,59,0.00,,,0.00,,2013-07-24 16:22:00,
2013-07-24 12:33:00,69.0,54.0,29.99,NNW,336,1.0,4.0,59,0.00,,,0.00,,2013-07-24 16:33:00,
2013-07-24 12:43:00,68.0,54.0,29.99,NE,42,0.0,3.0,62,0.00,,,0.00,,2013-07-24 16:43:00,
2013-07-24 13:03:00,69.0,54.0,29.99,ENE,74,2.0,4.0,59,0.00,,,0.00,,2013-07-24 17:03:00,
2013-07-24 13:12:00,69.0,54.0,29.99,ENE,74,2.0,4.0,59,0.00,,,0.00,,2013-07-24 17:12:00,
2013-07-24 13:33:00,69.0,55.0,29.99,NNW,338,0.0,4.0,60,0.00,,,0.00,,2013-07-24 17:33:00,
2013-07-24 14:02:00,69.0,54.0,29.99,NE,53,1.0,5.0,58,0.00,,,0.00,,2013-07-24 18:02:00,
2013-07-24 14:12:00,70.0,53.0,29.99,NE,51,0.0,2.0,54,0.00,,,0.00,,2013-07-24 18:12:00,
2013-07-24 14:22:00,70.0,54.0,29.99,ENE,63,0.0,4.0,57,0.00,,,0.00,,2013-07-24 18:22:00,
2013-07-24 14:33:00,69.0,53.0,29.99,ENE,59,3.0,6.0,56,0.00,,,0.00,,2013-07-24 18:33:00,
2013-07-24 14:43:00,69.0,53.0,29.99,NE,44,0.0,5.0,57,0.00,,,0.00,,2013-07-24 18:43:00,
2013-07-24 14:52:00,69.0,53.0,29.99,NE,44,0.0,5.0,57,0.00,,,0.00,,2013-07-24 18:52:00,
2013-07-24 15:02:00,70.0,54.0,29.98,NW,317,2.0,3.0,57,0.00,,,0.00,,2013-07-24 19:02:00,
2013-07-24 15:22:00,70.0,55.0,29.98,NNE,18,0.0,1.0,58,0.00,,,0.00,,2013-07-24 19:22:00,
2013-07-24 15:43:00,69.0,53.0,29.98,SSE,153,0.0,0.0,57,0.00,,,0.00,,2013-07-24 19:43:00,
2013-07-24 15:53:00,68.0,54.0,29.98,South,176,1.0,2.0,61,0.00,,,0.00,,2013-07-24 19:53:00,
2013-07-24 16:02:00,68.0,54.0,29.98,South,176,1.0,2.0,61,0.00,,,0.00,,2013-07-24 20:02:00,
2013-07-24 16:13:00,69.0,53.0,29.98,South,169,0.0,4.0,57,0.00,,,0.00,,2013-07-24 20:13:00,
2013-07-24 16:23:00,69.0,53.0,29.98,South,173,0.0,4.0,57,0.00,,,0.00,,2013-07-24 20:23:00,
2013-07-24 16:32:00,69.0,53.0,29.98,East,101,0.0,3.0,57,0.00,,,0.00,,2013-07-24 20:32:00,
2013-07-24 16:43:00,70.0,55.0,29.98,SSW,202,0.0,3.0,59,0.00,,,0.00,,2013-07-24 20:43:00,
2013-07-24 17:03:00,70.0,54.0,29.98,WNW,284,1.0,2.0,57,0.00,,,0.00,,2013-07-24 21:03:00,
2013-07-24 17:32:00,69.0,55.0,29.98,ESE,114,0.0,1.0,62,0.00,,,0.00,,2013-07-24 21:32:00,
2013-07-24 17:52:00,70.0,55.0,29.98,East,90,0.0,2.0,58,0.00,,,0.00,,2013-07-24 21:52:00,
2013-07-24 18:12:00,70.0,54.0,29.98,SSE,165,0.0,2.0,57,0.00,,,0.00,,2013-07-24 22:12:00,
2013-07-24 18:53:00,70.0,54.0,29.98,SSW,207,0.0,1.0,57,0.00,,,0.00,,2013-07-24 22:53:00,
2013-07-24 19:02:00,70.0,55.0,29.98,SSW,212,0.0,3.0,58,0.00,,,0.00,,2013-07-24 23:02:00,
2013-07-24 19:12:00,70.0,55.0,29.98,SSW,212,0.0,3.0,58,0.00,,,0.00,,2013-07-24 23:12:00,
2013-07-24 19:32:00,69.0,53.0,29.98,North,350,0.0,1.0,56,0.00,,,0.00,,2013-07-24 23:32:00,
2013-07-24 19:43:00,69.0,55.0,29.97,NNW,345,0.0,0.0,62,0.00,,,0.00,,2013-07-24 23:43:00,
2013-07-24 20:02:00,68.0,54.0,29.98,NNW,345,0.0,0.0,61,0.00,,,0.00,,2013-07-25 00:02:00,
2013-07-24 20:12:00,68.0,54.0,29.98,NNW,345,0.0,0.0,61,0.00,,,0.00,,2013-07-25 00:12:00,
2013-07-24 20:43:00,66.0,55.0,29.98,NNW,345,0.0,0.0,68,0.00,,,0.00,,2013-07-25 00:43:00,
2013-07-24 20:53:00,65.0,55.0,29.98,NNW,345,0.0,0.0,70,0.00,,,0.00,,2013-07-25 00:53:00,
2013-07-24 21:02:00,65.0,55.0,29.98,NNW,345,0.0,0.0,70,0.00,,,0.00,,2013-07-25 01:02:00,
2013-07-24 21:12:00,62.0,54.0,29.98,NNW,345,0.0,0.0,76,0.00,,,0.00,,2013-07-25 01:12:00,
2013-07-24 21:22:00,62.0,55.0,29.98,NNW,345,0.0,0.0,77,0.00,,,0.00,,2013-07-25 01:22:00,
2013-07-24 22:22:00,58.0,54.0,30.00,NNW,345,0.0,0.0,85,0.00,,,0.00,,2013-07-25 02:22:00,
2013-07-24 23:24:00,55.0,52.0,30.00,NNW,345,0.0,0.0,88,0.00,,,0.00,,2013-07-25 03:24:00,
2013-07-24 23:52:00,54.0,51.0,30.01,NNW,345,0.0,0.0,89,0.00,,,0.00,,2013-07-25 03:52:00,